createdAt,value
2022-09-15T00:00:28.274Z,100834.88
2022-09-15T00:02:54.969Z,100831.31
2022-09-15T00:05:21.651Z,100828.88
2022-09-15T00:07:48.472Z,100826.47
2022-09-15T00:10:15.145Z,100823.69
2022-09-15T00:12:41.795Z,100822.06
2022-09-15T00:15:08.874Z,100828.44
2022-09-15T00:17:35.547Z,100829.97
2022-09-15T00:20:02.685Z,100833.91
2022-09-15T00:22:29.292Z,100837.06
2022-09-15T00:24:55.951Z,100841.44
2022-09-15T00:27:22.587Z,100832.31
2022-09-15T00:29:49.252Z,100826.75
2022-09-15T00:32:15.855Z,100830.69
2022-09-15T00:34:42.484Z,100829.78
2022-09-15T00:37:09.068Z,100836.09
2022-09-15T00:39:35.707Z,100832.13
2022-09-15T00:42:04.076Z,100829.34
2022-09-15T00:44:36.755Z,100833.31
2022-09-15T00:47:19.263Z,100831.59
2022-09-15T00:49:49.099Z,100828.81
2022-09-15T00:52:20.209Z,100834.31
2022-09-15T00:55:20.929Z,100831.88
2022-09-15T00:58:02.735Z,100831.06
2022-09-15T01:00:29.583Z,100832.25
2022-09-15T01:02:57.559Z,100829.47
2022-09-15T01:05:30.681Z,100828.28
2022-09-15T01:08:04.647Z,100826.25
2022-09-15T01:10:37.500Z,100828.56
2022-09-15T01:13:10.699Z,100828.94
2022-09-15T01:15:52.553Z,100835.31
2022-09-15T01:18:44.634Z,100824.19
2022-09-15T01:21:20.304Z,100830.47
2022-09-15T01:24:14.969Z,100830.06
2022-09-15T01:26:50.102Z,100839.53
2022-09-15T01:29:44.648Z,100831.56
2022-09-15T01:32:47.950Z,100837.91
2022-09-15T01:35:17.290Z,100839.53
2022-09-15T01:37:50.748Z,100829.56
2022-09-15T01:40:20.017Z,100844.66
2022-09-15T01:42:50.184Z,100843.47
2022-09-15T01:45:22.244Z,100840.25
2022-09-15T01:47:52.495Z,100849.41
2022-09-15T01:50:27.561Z,100847.34
2022-09-15T01:52:59.729Z,100845.00
2022-09-15T01:55:30.372Z,100843.41
2022-09-15T01:57:58.159Z,100838.56
2022-09-15T02:00:25.944Z,100835.34
2022-09-15T02:03:00.651Z,100837.66
2022-09-15T02:06:02.052Z,100842.44
2022-09-15T02:08:52.526Z,100832.91
2022-09-15T02:11:21.663Z,100843.59
2022-09-15T02:13:54.175Z,100836.41
2022-09-15T02:16:24.363Z,100837.94
2022-09-15T02:19:00.812Z,100833.56
2022-09-15T02:21:40.563Z,100836.69
2022-09-15T02:24:19.175Z,100842.63
2022-09-15T02:26:49.012Z,100843.78
2022-09-15T02:29:19.409Z,100837.41
2022-09-15T02:31:48.436Z,100840.13
2022-09-15T02:34:24.824Z,100843.22
2022-09-15T02:36:53.210Z,100853.22
2022-09-15T02:39:23.507Z,100850.44
2022-09-15T02:41:50.219Z,100851.91
2022-09-15T02:44:16.843Z,100848.34
2022-09-15T02:46:43.904Z,100836.78
2022-09-15T02:49:10.602Z,100846.63
2022-09-15T02:51:37.200Z,100845.00
2022-09-15T02:54:03.863Z,100843.75
2022-09-15T02:56:30.556Z,100847.34
2022-09-15T02:58:57.147Z,100843.31
2022-09-15T03:01:32.288Z,100849.22
2022-09-15T03:03:59.528Z,100847.53
2022-09-15T03:06:29.190Z,100856.22
2022-09-15T03:08:58.844Z,100848.59
2022-09-15T03:11:27.728Z,100843.66
2022-09-15T03:14:00.110Z,100849.91
2022-09-15T03:16:28.665Z,100846.25
2022-09-15T03:18:56.838Z,100842.50
2022-09-15T03:21:23.534Z,100841.50
2022-09-15T03:23:50.281Z,100844.97
2022-09-15T03:26:17.423Z,100831.00
2022-09-15T03:28:44.129Z,100837.25
2022-09-15T03:31:11.215Z,100841.09
2022-09-15T03:33:37.893Z,100840.91
2022-09-15T03:36:05.216Z,100843.94
2022-09-15T03:38:31.863Z,100840.69
2022-09-15T03:41:04.713Z,100849.28
2022-09-15T03:43:32.384Z,100852.75
2022-09-15T03:45:59.085Z,100859.03
2022-09-15T03:48:27.673Z,100859.75
2022-09-15T03:50:54.553Z,100870.38
2022-09-15T03:53:21.225Z,100867.97
2022-09-15T03:55:49.544Z,100869.47
2022-09-15T03:58:17.915Z,100872.50
2022-09-15T04:00:45.956Z,100877.22
2022-09-15T04:03:13.338Z,100872.84
2022-09-15T04:05:40.128Z,100872.75
2022-09-15T04:08:06.825Z,100877.84
2022-09-15T04:10:33.663Z,100881.78
2022-09-15T04:13:00.244Z,100879.69
2022-09-15T04:15:26.943Z,100883.97
2022-09-15T04:17:54.001Z,100878.78
2022-09-15T04:20:21.482Z,100883.84
2022-09-15T04:22:48.503Z,100889.88
2022-09-15T04:25:15.093Z,100889.88
2022-09-15T04:27:41.752Z,100902.13
2022-09-15T04:30:08.998Z,100893.34
2022-09-15T04:32:35.987Z,100904.44
2022-09-15T04:35:04.032Z,100902.81
2022-09-15T04:37:31.385Z,100899.59
2022-09-15T04:39:58.345Z,100904.22
2022-09-15T04:42:25.846Z,100898.56
2022-09-15T04:44:52.460Z,100903.31
2022-09-15T04:47:19.558Z,100897.31
2022-09-15T04:49:46.774Z,100901.22
2022-09-15T04:52:13.484Z,100895.19
2022-09-15T04:54:40.075Z,100902.34
2022-09-15T04:57:06.881Z,100894.38
2022-09-15T04:59:33.645Z,100907.44
2022-09-15T05:02:00.389Z,100911.38
2022-09-15T05:04:27.027Z,100920.03
2022-09-15T05:06:53.641Z,100914.03
2022-09-15T05:09:20.707Z,100909.31
2022-09-15T05:11:47.345Z,100911.63
2022-09-15T05:14:13.981Z,100915.09
2022-09-15T05:16:40.651Z,100919.38
2022-09-15T05:19:07.297Z,100925.69
2022-09-15T05:21:33.962Z,100919.00
2022-09-15T05:24:00.734Z,100921.78
2022-09-15T05:26:29.565Z,100922.47
2022-09-15T05:28:57.060Z,100921.19
2022-09-15T05:31:31.201Z,100927.09
2022-09-15T05:34:01.132Z,100927.56
2022-09-15T05:36:27.823Z,100922.00
2022-09-15T05:38:58.289Z,100923.28
2022-09-15T05:41:26.501Z,100924.91
2022-09-15T05:43:55.138Z,100923.75
2022-09-15T05:46:22.587Z,100932.19
2022-09-15T05:48:49.332Z,100922.72
2022-09-15T05:51:16.013Z,100928.72
2022-09-15T05:53:42.860Z,100916.94
2022-09-15T05:56:14.480Z,100925.25
2022-09-15T05:58:42.411Z,100930.81
2022-09-15T06:01:13.634Z,100933.22
2022-09-15T06:03:41.488Z,100927.31
2022-09-15T06:06:08.196Z,100928.97
2022-09-15T06:08:37.689Z,100928.63
2022-09-15T06:11:07.195Z,100941.31
2022-09-15T06:13:33.999Z,100947.00
2022-09-15T06:16:02.853Z,100946.31
2022-09-15T06:18:29.561Z,100949.53
2022-09-15T06:20:56.298Z,100947.22
2022-09-15T06:23:22.965Z,100951.25
2022-09-15T06:25:49.627Z,100952.06
2022-09-15T06:28:16.216Z,100942.13
2022-09-15T06:30:48.885Z,100949.75
2022-09-15T06:33:17.548Z,100952.97
2022-09-15T06:35:44.149Z,100962.22
2022-09-15T06:38:11.547Z,100966.28
2022-09-15T06:40:38.127Z,100962.81
2022-09-15T06:43:04.716Z,100970.44
2022-09-15T06:45:31.312Z,100971.69
2022-09-15T06:48:20.194Z,100971.00
2022-09-15T06:50:45.093Z,100967.16
2022-09-15T06:53:11.861Z,100970.41
2022-09-15T06:55:38.456Z,100968.88
2022-09-15T06:58:05.058Z,100975.38
2022-09-15T07:00:31.728Z,100969.13
2022-09-15T07:02:58.387Z,100976.72
2022-09-15T07:05:25.646Z,100978.81
2022-09-15T07:07:52.650Z,100980.88
2022-09-15T07:10:19.322Z,100981.31
2022-09-15T07:12:46.319Z,100981.44
2022-09-15T07:15:13.288Z,100984.66
2022-09-15T07:17:39.974Z,100989.53
2022-09-15T07:20:06.963Z,100977.72
2022-09-15T07:22:33.532Z,100981.75
2022-09-15T07:25:00.130Z,100982.22
2022-09-15T07:27:31.576Z,100984.72
2022-09-15T07:29:58.985Z,100978.22
2022-09-15T07:32:26.052Z,100987.22
2022-09-15T07:34:55.499Z,100985.09
2022-09-15T07:37:24.696Z,100990.75
2022-09-15T07:39:51.410Z,100997.69
2022-09-15T07:42:18.059Z,100993.81
2022-09-15T07:44:44.652Z,100991.97
2022-09-15T07:47:11.292Z,101002.47
2022-09-15T07:49:37.860Z,100997.94
2022-09-15T07:52:04.581Z,101002.06
2022-09-15T07:54:31.284Z,100999.84
2022-09-15T07:56:57.919Z,101003.59
2022-09-15T07:59:24.530Z,101009.34
2022-09-15T08:01:51.306Z,101010.25
2022-09-15T08:04:18.034Z,101002.34
2022-09-15T08:06:44.926Z,101021.03
2022-09-15T08:09:17.448Z,101024.34
2022-09-15T08:11:44.178Z,101019.75
2022-09-15T08:14:11.021Z,101020.31
2022-09-15T08:16:38.672Z,101018.72
2022-09-15T08:19:05.438Z,101017.78
2022-09-15T08:21:32.173Z,101016.91
2022-09-15T08:24:00.664Z,101034.66
2022-09-15T08:26:28.565Z,101028.53
2022-09-15T08:28:55.264Z,101030.28
2022-09-15T08:31:24.043Z,101028.38
2022-09-15T08:33:54.003Z,101028.91
2022-09-15T08:36:22.563Z,101037.78
2022-09-15T08:38:49.249Z,101039.50
2022-09-15T08:41:28.536Z,101044.19
2022-09-15T08:44:11.180Z,101042.91
2022-09-15T08:46:43.724Z,101052.66
2022-09-15T08:49:40.969Z,101059.19
2022-09-15T08:52:16.551Z,101057.28
2022-09-15T08:54:43.332Z,101060.50
2022-09-15T08:57:18.809Z,101066.97
2022-09-15T08:59:45.645Z,101064.19
2022-09-15T09:02:12.300Z,101068.56
2022-09-15T09:05:22.805Z,101065.00
2022-09-15T09:07:59.941Z,101074.53
2022-09-15T09:10:32.306Z,101072.31
2022-09-15T09:13:05.830Z,101072.19
2022-09-15T09:15:43.787Z,101065.84
2022-09-15T09:18:53.105Z,101075.84
2022-09-15T09:21:32.724Z,101074.16
2022-09-15T09:24:06.302Z,101068.41
2022-09-15T09:26:36.211Z,101073.41
2022-09-15T09:29:20.349Z,101071.34
2022-09-15T09:31:52.960Z,101076.19
2022-09-15T09:34:50.518Z,101073.16
2022-09-15T09:37:17.482Z,101072.25
2022-09-15T09:39:44.077Z,101078.84
2022-09-15T09:42:16.031Z,101075.13
2022-09-15T09:44:42.552Z,101074.72
2022-09-15T09:47:09.239Z,101083.66
2022-09-15T09:49:42.593Z,101082.13
2022-09-15T09:52:09.247Z,101083.56
2022-09-15T09:54:36.054Z,101084.47
2022-09-15T09:57:28.687Z,101080.28
2022-09-15T09:59:55.652Z,101080.16
2022-09-15T10:02:25.340Z,101083.44
2022-09-15T10:05:15.744Z,101078.94
2022-09-15T10:07:46.346Z,101085.84
2022-09-15T10:10:24.483Z,101082.63
2022-09-15T10:12:56.549Z,101077.47
2022-09-15T10:15:34.058Z,101088.06
2022-09-15T10:18:01.795Z,101078.44
2022-09-15T10:20:33.921Z,101084.50
2022-09-15T10:23:28.572Z,101076.59
2022-09-15T10:26:16.842Z,101073.81
2022-09-15T10:29:03.821Z,101081.56
2022-09-15T10:31:33.067Z,101080.69
2022-09-15T10:34:30.878Z,101079.91
2022-09-15T10:37:14.412Z,101088.97
2022-09-15T10:39:53.395Z,101088.25
2022-09-15T10:42:35.372Z,101091.09
2022-09-15T10:45:09.772Z,101087.63
2022-09-15T10:48:03.857Z,101085.06
2022-09-15T10:50:45.112Z,101090.94
2022-09-15T10:53:57.591Z,101086.16
2022-09-15T10:56:36.899Z,101084.53
2022-09-15T10:59:33.511Z,101091.13
2022-09-15T11:02:23.764Z,101088.81
2022-09-15T11:04:53.477Z,101088.63
2022-09-15T11:08:00.400Z,101094.09
2022-09-15T11:10:29.706Z,101087.97
2022-09-15T11:13:05.089Z,101106.69
2022-09-15T11:15:48.170Z,101102.25
2022-09-15T11:18:17.592Z,101098.09
2022-09-15T11:21:01.316Z,101094.69
2022-09-15T11:23:40.155Z,101099.66
2022-09-15T11:26:37.150Z,101101.09
2022-09-15T11:29:15.049Z,101113.69
2022-09-15T11:31:49.280Z,101113.88
2022-09-15T11:34:38.477Z,101114.09
2022-09-15T11:37:17.297Z,101117.06
2022-09-15T11:39:55.960Z,101116.13
2022-09-15T11:43:03.909Z,101115.66
2022-09-15T11:45:38.218Z,101109.75
2022-09-15T11:48:13.816Z,101105.47
2022-09-15T11:50:45.743Z,101110.16
2022-09-15T11:53:33.816Z,101108.13
2022-09-15T11:56:27.106Z,101114.41
2022-09-15T11:59:12.540Z,101116.53
2022-09-15T12:01:59.370Z,101116.59
2022-09-15T12:04:33.383Z,101117.41
2022-09-15T12:07:13.781Z,101115.78
2022-09-15T12:09:41.458Z,101110.53
2022-09-15T12:12:14.453Z,101112.44
2022-09-15T12:14:44.935Z,101110.75
2022-09-15T12:17:43.669Z,101114.19
2022-09-15T12:20:36.325Z,101118.53
2022-09-15T12:23:32.857Z,101118.47
2022-09-15T12:26:16.084Z,101124.00
2022-09-15T12:29:02.206Z,101116.16
2022-09-15T12:31:49.183Z,101128.41
2022-09-15T12:34:24.796Z,101122.34
2022-09-15T12:37:06.838Z,101120.13
2022-09-15T12:39:40.287Z,101118.28
2022-09-15T12:42:18.866Z,101128.25
2022-09-15T12:45:00.967Z,101117.00
2022-09-15T12:47:28.563Z,101109.66
2022-09-15T12:50:01.705Z,101116.72
2022-09-15T12:52:29.273Z,101119.72
2022-09-15T12:55:01.838Z,101129.16
2022-09-15T12:57:35.600Z,101118.78
2022-09-15T13:00:20.643Z,101114.34
2022-09-15T13:02:48.778Z,101114.31
2022-09-15T13:05:35.352Z,101119.41
2022-09-15T13:08:01.964Z,101117.75
2022-09-15T13:10:33.295Z,101107.91
2022-09-15T13:13:11.938Z,101106.47
2022-09-15T13:15:48.950Z,101101.81
2022-09-15T13:18:18.724Z,101104.72
2022-09-15T13:20:54.094Z,101097.69
2022-09-15T13:23:25.099Z,101106.63
2022-09-15T13:25:56.656Z,101100.47
2022-09-15T13:28:24.760Z,101094.31
2022-09-15T13:31:08.818Z,101091.97
2022-09-15T13:40:09.636Z,101100.63
2022-09-15T13:43:13.614Z,101109.69
2022-09-15T13:45:55.398Z,101109.16
2022-09-15T13:48:22.945Z,101114.59
2022-09-15T13:50:59.653Z,101109.31
2022-09-15T13:53:47.393Z,101104.88
2022-09-15T13:56:28.037Z,101112.50
2022-09-15T13:59:07.065Z,101105.53
2022-09-15T14:01:42.531Z,101096.53
2022-09-15T14:04:16.733Z,101091.13
2022-09-15T14:06:50.069Z,101091.69
2022-09-15T14:09:21.650Z,101105.03
2022-09-15T14:11:54.686Z,101092.63
2022-09-15T14:14:27.204Z,101098.69
2022-09-15T14:16:56.247Z,101095.50
2022-09-15T14:19:37.936Z,101104.34
2022-09-15T14:22:26.304Z,101091.31
2022-09-15T14:24:54.051Z,101095.19
2022-09-15T14:27:44.558Z,101095.94
2022-09-15T14:30:23.932Z,101094.72
2022-09-15T14:33:00.699Z,101094.88
2022-09-15T14:35:31.875Z,101093.69
2022-09-15T14:38:00.089Z,101091.19
2022-09-15T14:40:34.782Z,101080.34
2022-09-15T14:43:01.941Z,101091.19
2022-09-15T14:45:58.313Z,101097.38
2022-09-15T14:48:28.319Z,101100.25
2022-09-15T14:51:07.277Z,101093.47
2022-09-15T14:53:38.278Z,101097.13
2022-09-15T14:56:08.274Z,101088.28
2022-09-15T14:58:47.933Z,101091.91
2022-09-15T15:01:21.240Z,101098.72
2022-09-15T15:03:53.293Z,101095.53
2022-09-15T15:06:40.819Z,101100.72
2022-09-15T15:09:18.385Z,101097.84
2022-09-15T15:11:58.234Z,101108.31
2022-09-15T15:14:25.597Z,101101.91
2022-09-15T15:16:58.010Z,101105.53
2022-09-15T15:20:13.845Z,101111.56
2022-09-15T15:22:42.776Z,101112.38
2022-09-15T15:25:34.157Z,101105.56
2022-09-15T15:28:01.510Z,101106.34
2022-09-15T15:30:46.659Z,101117.13
2022-09-15T15:33:23.289Z,101116.31
2022-09-15T15:36:05.514Z,101124.31
2022-09-15T15:38:45.051Z,101110.28
2022-09-15T15:41:23.677Z,101113.16
2022-09-15T15:43:59.476Z,101110.75
2022-09-15T15:47:13.356Z,101122.84
2022-09-15T15:50:02.365Z,101117.22
2022-09-15T15:52:26.533Z,101114.81
2022-09-15T15:54:53.485Z,101116.38
2022-09-15T15:57:27.135Z,101108.34
2022-09-15T15:59:58.809Z,101113.16
2022-09-15T16:02:26.208Z,101110.72
2022-09-15T16:04:53.895Z,101113.16
2022-09-15T16:07:24.367Z,101112.75
2022-09-15T16:09:51.542Z,101111.94
2022-09-15T16:12:18.209Z,101113.53
2022-09-15T16:14:45.023Z,101106.28
2022-09-15T16:17:11.819Z,101122.69
2022-09-15T16:19:38.509Z,101127.06
2022-09-15T16:22:05.292Z,101125.75
2022-09-15T16:24:32.966Z,101124.91
2022-09-15T16:27:02.092Z,101121.22
2022-09-15T16:29:36.493Z,101128.06
2022-09-15T16:32:05.795Z,101123.63
2022-09-15T16:34:32.686Z,101125.22
2022-09-15T16:36:59.368Z,101127.19
2022-09-15T16:39:25.969Z,101124.72
2022-09-15T16:41:52.832Z,101130.28
2022-09-15T16:44:20.144Z,101136.63
2022-09-15T16:46:47.884Z,101133.25
2022-09-15T16:49:14.642Z,101130.78
2022-09-15T16:51:41.239Z,101139.53
2022-09-15T16:54:16.537Z,101133.78
2022-09-15T16:56:44.011Z,101142.50
2022-09-15T16:59:10.686Z,101132.06
2022-09-15T17:01:37.397Z,101139.13
2022-09-15T17:04:11.567Z,101142.69
2022-09-15T17:06:38.224Z,101134.25
2022-09-15T17:09:04.895Z,101134.19
2022-09-15T17:11:31.529Z,101131.34
2022-09-15T17:13:58.095Z,101134.44
2022-09-15T17:16:24.744Z,101120.69
2022-09-15T17:18:51.345Z,101132.09
2022-09-15T17:21:19.726Z,101129.97
2022-09-15T17:23:49.279Z,101139.13
2022-09-15T17:26:21.448Z,101143.81
2022-09-15T17:28:48.955Z,101142.13
2022-09-15T17:31:17.218Z,101147.22
2022-09-15T17:33:46.019Z,101152.34
2022-09-15T17:36:13.145Z,101154.66
2022-09-15T17:38:44.942Z,101148.91
2022-09-15T17:41:22.466Z,101144.88
2022-09-15T17:43:49.632Z,101146.00
2022-09-15T17:46:16.804Z,101146.38
2022-09-15T17:48:43.501Z,101151.19
2022-09-15T17:51:19.968Z,101153.56
2022-09-15T17:53:47.712Z,101154.31
2022-09-15T17:56:14.436Z,101164.66
2022-09-15T17:58:43.143Z,101155.81
2022-09-15T18:01:13.438Z,101163.69
2022-09-15T18:03:40.184Z,101167.25
2022-09-15T18:06:08.254Z,101158.81
2022-09-15T18:08:38.742Z,101169.06
2022-09-15T18:11:06.717Z,101179.59
2022-09-15T18:13:34.138Z,101177.88
2022-09-15T18:16:12.749Z,101183.22
2022-09-15T18:18:40.947Z,101189.03
2022-09-15T18:21:09.817Z,101191.31
2022-09-15T18:23:37.556Z,101189.56
2022-09-15T18:26:04.204Z,101192.66
2022-09-15T18:28:30.895Z,101194.88
2022-09-15T18:30:57.599Z,101189.94
2022-09-15T18:33:25.645Z,101192.94
2022-09-15T18:35:56.779Z,101190.44
2022-09-15T18:38:24.369Z,101198.66
2022-09-15T18:40:54.168Z,101187.78
2022-09-15T18:43:21.917Z,101195.66
2022-09-15T18:45:49.253Z,101188.38
2022-09-15T18:48:15.971Z,101189.53
2022-09-15T18:50:44.571Z,101189.97
2022-09-15T18:53:11.812Z,101191.06
2022-09-15T18:55:41.598Z,101190.19
2022-09-15T18:58:08.656Z,101188.22
2022-09-15T19:00:35.496Z,101193.78
2022-09-15T19:03:05.245Z,101191.44
2022-09-15T19:05:32.412Z,101193.88
2022-09-15T19:07:59.204Z,101194.22
2022-09-15T19:10:26.907Z,101212.16
2022-09-15T19:12:54.020Z,101211.25
2022-09-15T19:15:23.712Z,101212.44
2022-09-15T19:17:51.251Z,101219.91
2022-09-15T19:20:18.259Z,101219.31
2022-09-15T19:22:46.063Z,101222.09
2022-09-15T19:25:13.519Z,101218.41
2022-09-15T19:27:41.329Z,101219.59
2022-09-15T19:30:10.197Z,101217.97
2022-09-15T19:32:38.296Z,101233.88
2022-09-15T19:35:05.871Z,101232.06
2022-09-15T19:37:37.457Z,101225.31
2022-09-15T19:40:08.621Z,101235.31
2022-09-15T19:42:36.490Z,101238.44
2022-09-15T19:45:03.746Z,101235.56
2022-09-15T19:47:30.500Z,101242.78
2022-09-15T19:49:57.225Z,101237.19
2022-09-15T19:52:25.005Z,101252.28
2022-09-15T19:54:51.717Z,101251.41
2022-09-15T19:57:18.576Z,101257.00
2022-09-15T19:59:47.036Z,101253.75
2022-09-15T20:02:13.740Z,101250.59
2022-09-15T20:04:40.405Z,101254.56
2022-09-15T20:07:07.184Z,101251.78
2022-09-15T20:09:34.241Z,101258.53
2022-09-15T20:12:03.312Z,101260.88
2022-09-15T20:14:38.410Z,101268.41
2022-09-15T20:17:05.212Z,101258.44
2022-09-15T20:19:31.917Z,101264.72
2022-09-15T20:21:58.755Z,101261.50
2022-09-15T20:24:26.506Z,101266.25
2022-09-15T20:26:53.497Z,101263.03
2022-09-15T20:29:20.613Z,101260.25
2022-09-15T20:31:47.799Z,101268.59
2022-09-15T20:34:14.576Z,101278.88
2022-09-15T20:36:41.373Z,101276.97
2022-09-15T20:39:12.947Z,101275.44
2022-09-15T20:41:41.145Z,101271.38
2022-09-15T20:44:10.938Z,101271.38
2022-09-15T20:46:37.737Z,101282.53
2022-09-15T20:49:05.002Z,101279.31
2022-09-15T20:51:33.740Z,101277.25
2022-09-15T20:54:03.467Z,101283.06
2022-09-15T20:56:32.501Z,101285.41
2022-09-15T20:59:00.452Z,101287.41
2022-09-15T21:01:38.932Z,101288.44
2022-09-15T21:04:07.974Z,101292.75
2022-09-15T21:06:35.196Z,101296.34
2022-09-15T21:09:02.520Z,101305.16
2022-09-15T21:11:29.637Z,101312.72
2022-09-15T21:13:57.144Z,101308.41
2022-09-15T21:16:26.701Z,101311.09
2022-09-15T21:18:53.992Z,101305.91
2022-09-15T21:21:23.072Z,101316.22
2022-09-15T21:23:53.243Z,101314.53
2022-09-15T21:26:25.823Z,101320.44
2022-09-15T21:28:53.676Z,101309.66
2022-09-15T21:31:28.922Z,101316.63
2022-09-15T21:33:56.933Z,101314.19
2022-09-15T21:36:26.959Z,101317.31
2022-09-15T21:38:56.401Z,101320.56
2022-09-15T21:41:26.427Z,101315.69
2022-09-15T21:43:55.592Z,101322.91
2022-09-15T21:46:24.806Z,101326.75
2022-09-15T21:48:52.847Z,101326.19
2022-09-15T21:51:24.551Z,101326.19
2022-09-15T21:53:54.856Z,101328.53
2022-09-15T21:56:22.507Z,101322.84
2022-09-15T21:58:49.308Z,101323.22
2022-09-15T22:01:21.723Z,101335.50
2022-09-15T22:03:53.379Z,101332.28
2022-09-15T22:06:27.736Z,101331.34
2022-09-15T22:08:55.448Z,101345.28
2022-09-15T22:11:23.313Z,101344.81
2022-09-15T22:13:53.242Z,101333.69
2022-09-15T22:16:22.347Z,101336.47
2022-09-15T22:18:49.894Z,101340.53
2022-09-15T22:21:22.482Z,101333.25
2022-09-15T22:23:50.594Z,101335.56
2022-09-15T22:26:26.436Z,101326.03
2022-09-15T22:28:53.641Z,101326.84
2022-09-15T22:31:23.207Z,101324.88
2022-09-15T22:33:50.355Z,101328.81
2022-09-15T22:36:19.445Z,101332.06
2022-09-15T22:38:46.936Z,101345.97
2022-09-15T22:41:16.810Z,101338.34
2022-09-15T22:43:45.542Z,101343.00
2022-09-15T22:46:13.173Z,101340.56
2022-09-15T22:48:43.443Z,101344.16
2022-09-15T22:51:11.459Z,101334.06
2022-09-15T22:53:38.234Z,101336.75
2022-09-15T22:56:11.871Z,101338.19
2022-09-15T22:58:42.174Z,101342.09
2022-09-15T23:01:18.772Z,101341.22
2022-09-15T23:03:53.117Z,101338.31
2022-09-15T23:06:21.412Z,101346.53
2022-09-15T23:08:56.549Z,101351.41
2022-09-15T23:11:24.521Z,101354.44
2022-09-15T23:13:52.593Z,101346.44
2022-09-15T23:16:19.617Z,101355.81
2022-09-15T23:18:46.721Z,101362.44
2022-09-15T23:21:14.164Z,101356.44
2022-09-15T23:23:43.198Z,101363.13
2022-09-15T23:26:11.662Z,101360.25
2022-09-15T23:28:39.274Z,101361.41
2022-09-15T23:31:06.550Z,101356.66
2022-09-15T23:33:33.304Z,101365.59
2022-09-15T23:36:01.388Z,101360.72
2022-09-15T23:38:28.086Z,101362.34
2022-09-15T23:40:54.717Z,101366.28
2022-09-15T23:43:21.505Z,101368.59
2022-09-15T23:45:48.315Z,101370.00
2022-09-15T23:48:15.025Z,101367.44
2022-09-15T23:50:42.334Z,101370.00
2022-09-15T23:53:09.630Z,101377.06
2022-09-15T23:55:36.569Z,101369.88
2022-09-15T23:58:04.714Z,101375.78
